Shuangcheng, China
Current Conditions -  °F | °C
As of 3:00 AM on Monday 24 Nov 2014 (Local Time) from ZYHB Reporting Station
Clear Clear  
Wind Chill:   Ceiling: Unl
Heat Index: 16°   Visibility: 6mi
Dew Point:   Wind: 7mph
Humidity: 73%   Direction: 250°WSW
Pressure: 30.24"   Gusts: NA
Location:  45.35°N, 126.28°E
Report Text: ZYHB 231900Z 25003MPS CAVOK M09/M13 Q1024 NOSIG
Loading
Personal Weather Stations






























Interactive Weather Map New forecast layout! Learn more

10-Day Weather Forecast

Advertisements
Track Severe Weather on mobile